Rechercher aéroport 
image banner adimage banner adimage banner ad
image banner ad

50CN - Palmdale Medical Center

Situé à Palmdale, United States

ICAO - 50CN, IATA -

Données fournies par Airmate  

Information générale

Coordonnées: N34°34'56" W118°8'42"
Élévation : 2743 feet MSL.
 
Voir autres Aéroports à California

Données opérationnelles

Special qualification required
Heure actuelle UTC:
Heure actuelle locale:
Météo à : KPMD - Palmdale Usaf Plant 42 ( 8 km )
METAR: KPMD 020553Z AUTO 20011KT 10SM CLR 28/00 A3011 RMK AO2 SLP159 T02830000 10367 20278 51014
TAF: KPMD 020533Z 0206/0306 22008KT P6SM SKC FM021400 VRB03KT P6SM SKC FM022200 25012G18KT P6SM SKC FM030100 25012KT P6SM SKC
Voir NOTAMs / SUP AIP / TFR affectant cet aéroport [VIEW]
Fréquences de communication: [VIEW]

Pistes:

Coordonnées de l'aéroport

Adresse: Palmdale United States

Vue satellite de 50CN